Latest Coastal Weather Observations for Stenhouse Bay

IDS60701

Issued at 3:41 pm CDT Monday 6 December 2021 (issued every 10 minutes, with the page automatically refreshed every 10 minutes)

About coastal observations | Map of coastal stations | Coastal observations for SA | Marine services | Other Formats
Station Details ID: 022049 Name: STENHOUSE BAY Lat: -35.28 Lon: 136.94 Height: 42.0 m
Data from the previous 72 hours. | See also: Recent months at Stenhouse Bay
Date/Time
CDT
Wind Sea
Height
m
Swell Vis
km
Cloud Weather Temp
°C
Press
MSL
hPa
Rain since
9am
mm
Dir  Spd
kts
Gust
kts
Height
m
Period
s
Dir
06/03:30pm SW 14 20 - - - - - - - 19.6 1013.1 0.0
06/03:00pm SW 12 16 - - - - - - - 19.7 1013.1 0.0
06/02:30pm SW 13 17 - - - - - - - 19.3 1013.3 0.0
06/02:00pm SW 12 16 - - - - - - - 19.5 1013.2 0.0
06/01:30pm SW 15 18 - - - - - - - 19.4 1013.5 0.0
06/01:00pm SW 14 17 - - - - - - - 19.6 1013.4 0.0
06/12:30pm SW 14 19 - - - - - - - 19.1 1013.5 0.0
06/12:00pm SW 13 18 - - - - - - - 19.0 1013.7 0.0
06/11:30am SW 14 18 - - - - - - - 18.6 1013.8 0.0
06/11:00am SW 10 13 - - - - - - - 18.4 1013.6 0.0
06/10:30am SSW 5 7 - - - - - - - 17.6 1013.4 0.0
06/10:00am SSW 7 10 - - - - - - - 17.8 1013.9 0.0
06/09:30am SSW 7 11 - - - - - - - 17.6 1014.1 0.0
06/09:00am SE 4 7 - - - - - - - 17.2 1013.5 0.0
06/08:30am SSE 6 8 - - - - - - - 16.5 1013.4 0.0
06/08:00am SE 6 9 - - - - - - - 16.6 1013.2 0.0
06/07:30am SE 9 11 - - - - - - - 15.7 1012.8 0.0
06/07:00am SE 8 11 - - - - - - - 14.9 1012.8 0.0
06/06:30am SSE 9 11 - - - - - - - 14.3 1012.9 0.0
06/06:00am SSE 11 13 - - - - - - - 14.0 1012.9 0.0
06/05:30am SSE 9 12 - - - - - - - 14.0 1012.7 0.0
06/05:00am SSE 10 13 - - - - - - - 13.9 1012.6 0.0
06/04:30am SSE 12 14 - - - - - - - 14.0 1012.9 0.0
06/04:00am SSE 13 15 - - - - - - - 14.2 1013.2 0.0
06/03:30am SSE 10 13 - - - - - - - 14.2 1013.4 0.0
06/03:00am SSE 8 9 - - - - - - - 14.0 1013.5 0.0
06/02:30am SE 7 9 - - - - - - - 14.1 1013.9 0.0
06/02:00am SE 9 11 - - - - - - - 14.2 1014.3 0.0
06/01:30am ESE 12 15 - - - - - - - 14.3 1014.3 0.0
06/01:00am SE 13 16 - - - - - - - 14.4 1014.5 0.0
06/12:30am SE 14 17 - - - - - - - 14.4 1014.7 0.0
06/12:00am ESE 13 16 - - - - - - - 14.5 1015.1 0.0
 
Date/Time
CDT
Wind Sea
Height
m
Swell Vis
km
Cloud Weather Temp
°C
Press
MSL
hPa
Rain since
9am
mm
Dir  Spd
kts
Gust
kts
Height
m
Period
s
Dir
05/11:30pm ESE 15 18 - - - - - - - 14.5 1015.1 0.0
05/11:00pm ESE 16 19 - - - - - - - 14.5 1015.5 0.0
05/10:30pm ESE 15 18 - - - - - - - 14.6 1015.6 0.0
05/10:00pm ESE 14 18 - - - - - - - 14.7 1015.5 0.0
05/09:30pm ESE 13 17 - - - - - - - 14.9 1015.6 0.0
05/09:00pm SE 13 17 - - - - - - - 15.3 1015.7 0.0
05/08:30pm ESE 14 17 - - - - - - - 15.6 1015.6 0.0
05/08:00pm ESE 16 19 - - - - - - - 16.3 1015.5 0.0
05/07:30pm ESE 14 18 - - - - - - - 17.5 1015.2 0.0
05/07:00pm E 9 12 - - - - - - - 17.4 1015.7 0.0
05/06:30pm ESE 6 8 - - - - - - - 18.7 1015.7 0.0
05/06:00pm SSE 6 8 - - - - - - - 18.8 1015.9 0.0
05/05:30pm SE 7 9 - - - - - - - 19.2 1016.1 0.0
05/05:00pm SSE 7 9 - - - - - - - 19.1 1016.4 0.0
05/04:30pm SSE 8 11 - - - - - - - 19.5 1016.5 0.0
05/04:00pm SE 7 9 - - - - - - - 19.0 1016.6 0.0
05/03:30pm SSE 7 9 - - - - - - - 19.5 1017.0 0.0
05/03:00pm SE 7 10 - - - - - - - 19.4 1017.5 0.0
05/02:30pm ESE 7 9 - - - - - - - 20.4 1017.9 0.0
05/02:00pm ESE 7 10 - - - - - - - 19.1 1018.5 0.0
05/01:30pm E 9 11 - - - - - - - 20.5 1018.7 0.0
05/01:00pm E 9 12 - - - - - - - 19.9 1019.0 0.0
05/12:30pm ESE 11 14 - - - - - - - 20.4 1019.3 0.0
05/12:00pm ESE 10 13 - - - - - - - 20.1 1019.4 0.0
05/11:30am E 11 15 - - - - - - - 20.3 1019.6 0.0
05/11:00am E 11 14 - - - - - - - 17.6 1019.8 0.0
05/10:30am E 12 15 - - - - - - - 17.6 1020.1 0.0
05/10:00am E 10 14 - - - - - - - 17.4 1020.5 0.0
05/09:30am E 10 14 - - - - - - - 17.1 1020.8 0.0
05/09:00am E 12 15 - - - - - - - 17.8 1021.0 0.0
05/08:30am E 11 14 - - - - - - - 17.0 1021.2 0.0
05/08:00am ESE 10 13 - - - - - - - 16.8 1021.0 0.0
05/07:30am E 12 16 - - - - - - - 16.6 1020.8 0.0
05/07:00am ESE 12 16 - - - - - - - 15.2 1020.6 0.0
05/06:30am ESE 11 14 - - - - - - - 14.9 1020.7 0.0
05/06:00am SE 12 18 - - - - - - - 14.7 1020.6 0.0
05/05:30am SE 12 17 - - - - - - - 14.7 1020.3 0.0
05/05:00am SE 11 16 - - - - - - - 14.6 1020.1 0.0
05/04:30am SE 12 17 - - - - - - - 14.4 1020.1 0.0
05/04:00am SE 12 17 - - - - - - - 14.5 1020.1 0.0
05/03:30am SE 16 20 - - - - - - - 14.3 1019.9 0.0
05/03:00am SE 14 17 - - - - - - - 14.2 1020.4 0.0
05/02:30am SE 14 18 - - - - - - - 14.4 1020.6 0.0
05/02:00am SE 14 18 - - - - - - - 14.6 1020.9 0.0
05/01:30am SE 13 19 - - - - - - - 14.4 1021.1 0.0
05/01:00am SE 16 21 - - - - - - - 14.5 1021.3 0.0
05/12:30am SE 14 19 - - - - - - - 14.5 1021.6 0.0
05/12:00am SE 17 21 - - - - - - - 14.6 1021.8 0.0
 
Date/Time
CDT
Wind Sea
Height
m
Swell Vis
km
Cloud Weather Temp
°C
Press
MSL
hPa
Rain since
9am
mm
Dir  Spd
kts
Gust
kts
Height
m
Period
s
Dir
04/11:30pm SE 15 19 - - - - - - - 14.9 1022.1 0.0
04/11:00pm SE 13 17 - - - - - - - 15.2 1022.4 0.0
04/10:30pm SE 12 16 - - - - - - - 15.5 1022.7 0.0
04/10:00pm SSE 12 16 - - - - - - - 15.8 1022.5 0.0
04/09:30pm ENE 8 11 - - - - - - - 16.4 1022.0 0.0
04/09:00pm E 9 13 - - - - - - - 16.6 1021.7 0.0
04/08:30pm S 12 16 - - - - - - - 16.1 1021.8 0.0
04/08:00pm SSW 13 18 - - - - - - - 16.3 1021.9 0.0
04/07:30pm SSW 14 19 - - - - - - - 16.5 1021.8 0.0
04/07:00pm SW 10 16 - - - - - - - 16.9 1021.8 0.0
04/06:30pm SW 12 17 - - - - - - - 16.9 1021.6 0.0
04/06:00pm SW 13 17 - - - - - - - 17.5 1021.7 0.0
04/05:30pm SW 11 15 - - - - - - - 17.8 1021.7 0.0
04/05:00pm SW 13 16 - - - - - - - 18.7 1021.6 0.0
04/04:30pm SW 12 16 - - - - - - - 18.1 1022.0 0.0
04/04:00pm SW 12 15 - - - - - - - 19.4 1022.4 0.0
04/03:30pm SW 11 15 - - - - - - - 19.1 1022.6 0.0
04/03:00pm SW 12 16 - - - - - - - 19.0 1023.2 0.0
04/02:30pm SW 10 13 - - - - - - - 19.9 1023.3 0.0
04/02:00pm SW 10 15 - - - - - - - 19.6 1023.3 0.0
04/01:30pm SW 9 12 - - - - - - - 19.8 1023.6 0.0
04/01:00pm SW 8 11 - - - - - - - 19.8 1023.8 0.0
04/12:30pm SW 6 9 - - - - - - - 19.7 1024.2 0.0
04/12:00pm SSW 5 8 - - - - - - - 19.0 1024.4 0.0
04/11:30am SSW 5 8 - - - - - - - 18.5 1024.4 0.0
04/11:00am S 6 8 - - - - - - - 18.3 1024.3 0.0
04/10:30am S 7 9 - - - - - - - 17.3 1023.9 0.0
04/10:00am SSE 8 10 - - - - - - - 17.1 1023.9 0.0
04/09:30am S 10 14 - - - - - - - 16.4 1023.9 0.0
04/09:00am S 8 11 - - - - - - - 16.0 1023.9 0.0
04/08:30am SSE 8 10 - - - - - - - 15.4 1024.0 0.0
04/08:00am SSE 8 11 - - - - - - - 15.3 1023.6 0.0
04/07:30am S 13 17 - - - - - - - 15.3 1023.2 0.0
04/07:00am S 12 16 - - - - - - - 14.7 1022.9 0.0
04/06:30am S 13 16 - - - - - - - 13.9 1022.6 0.0
04/06:00am S 11 14 - - - - - - - 13.8 1022.6 0.0
04/05:30am S 11 16 - - - - - - - 13.9 1022.3 0.0
04/05:00am S 12 16 - - - - - - - 13.5 1022.1 0.0
04/04:30am S 13 17 - - - - - - - 13.6 1021.8 0.0
04/04:00am S 14 17 - - - - - - - 13.5 1021.7 0.0
04/03:30am S 13 16 - - - - - - - 13.5 1021.7 0.0
04/03:00am S 12 16 - - - - - - - 13.5 1021.7 0.0
04/02:30am S 13 16 - - - - - - - 13.6 1021.8 0.0
04/02:00am SSE 11 15 - - - - - - - 13.3 1021.8 0.0
04/01:30am SSE 13 17 - - - - - - - 13.4 1022.0 0.0
04/01:00am S 13 15 - - - - - - - 13.6 1022.3 0.0
04/12:30am S 14 18 - - - - - - - 13.7 1022.6 0.0
04/12:00am SSE 15 18 - - - - - - - 13.9 1022.5 0.0
 
Date/Time
CDT
Wind Sea
Height
m
Swell Vis
km
Cloud Weather Temp
°C
Press
MSL
hPa
Rain since
9am
mm
Dir  Spd
kts
Gust
kts
Height
m
Period
s
Dir
03/11:30pm SSE 15 19 - - - - - - - 13.9 1022.4 0.0
03/11:00pm SSE 14 18 - - - - - - - 13.9 1022.3 0.0
03/10:30pm S 14 17 - - - - - - - 14.0 1022.4 0.0
03/10:00pm SSE 14 17 - - - - - - - 14.3 1022.3 0.0
03/09:30pm SSE 13 17 - - - - - - - 14.9 1022.0 0.0
03/09:00pm SSE 13 16 - - - - - - - 15.1 1021.8 0.0
03/08:30pm S 13 17 - - - - - - - 15.5 1021.5 0.0
03/08:00pm SSW 12 18 - - - - - - - 15.6 1021.4 0.0
03/07:30pm SSW 14 19 - - - - - - - 15.9 1021.3 0.0
03/07:00pm SW 12 16 - - - - - - - 16.6 1021.2 0.0
03/06:30pm SW 14 19 - - - - - - - 16.6 1021.2 0.0
03/06:00pm SW 14 20 - - - - - - - 17.7 1021.0 0.0
03/05:30pm SW 14 17 - - - - - - - 18.2 1021.0 0.0
03/05:00pm SW 16 21 - - - - - - - 18.4 1020.9 0.0
03/04:30pm SW 14 20 - - - - - - - 18.1 1020.3 0.0
03/04:00pm SSW 12 19 - - - - - - - 19.2 1020.3 0.0

Other formats

Comma delimited format used in spreadsheet applications
http://www.bom.gov.au/fwo/IDS60701/IDS60701.95806.axf

JavaScript Object Notation format (JSON) in row-major order
http://www.bom.gov.au/fwo/IDS60701/IDS60701.95806.json

Data quality

Most of these data are generated automatically and are frequently updated. Quality checks on data are not normally performed. It is possible for incorrect values to appear. Refer to information at About Latest Weather Observations and please check the disclaimer before using these data.